Time;durP1;ratioP1;P1;durP2;ratioP2;P2;SDS_P1;SDS_P2;PMS_P1;PMS_P2;Temp;Humidity;BMP_temperature;BMP_pressure;BME280_temperature;BME280_humidity;BME280_pressure;Samples;Min_cycle;Max_cycle;Signal;HPM_P1;HPM_P2
2022/10/31 00:02:03;;;;;;;13.73;4.27;;;;;;;12.34;100.00;101049.75;5200406;28;20079;-77
2022/10/31 00:04:33;;;;;;;10.50;3.67;;;;;;;12.38;100.00;101053.97;5199938;28;20802;-76
2022/10/31 00:07:04;;;;;;;14.65;4.10;;;;;;;12.34;100.00;101054.13;5200174;28;20025;-77
2022/10/31 00:09:34;;;;;;;12.02;3.85;;;;;;;12.20;100.00;101062.47;5200074;28;20029;-77
2022/10/31 00:12:04;;;;;;;8.90;4.00;;;;;;;12.12;100.00;101061.84;5200582;28;20197;-77
2022/10/31 00:14:35;;;;;;;13.43;4.10;;;;;;;12.06;100.00;101059.47;5200016;28;20033;-77
2022/10/31 00:17:05;;;;;;;12.93;4.35;;;;;;;12.00;100.00;101062.28;5199756;28;20037;-76
2022/10/31 00:19:35;;;;;;;10.53;3.80;;;;;;;12.04;100.00;101069.13;5200738;28;20324;-77
2022/10/31 00:22:05;;;;;;;7.28;3.70;;;;;;;11.93;100.00;101063.38;5199906;28;20303;-76
2022/10/31 00:24:36;;;;;;;8.00;3.90;;;;;;;11.88;100.00;101067.94;5200314;28;20025;-76
2022/10/31 00:27:06;;;;;;;14.95;3.67;;;;;;;11.84;100.00;101066.31;5200703;28;20750;-76
2022/10/31 00:29:36;;;;;;;9.98;4.10;;;;;;;11.88;100.00;101070.56;5199549;28;20461;-77
2022/10/31 00:32:06;;;;;;;12.50;4.03;;;;;;;11.90;100.00;101065.25;5200387;28;20052;-77
2022/10/31 00:34:37;;;;;;;12.52;4.22;;;;;;;11.94;100.00;101067.72;5204090;28;20111;-76
2022/10/31 00:37:07;;;;;;;9.02;4.10;;;;;;;11.91;100.00;101069.56;5203557;28;20033;-77
2022/10/31 00:39:37;;;;;;;10.48;4.22;;;;;;;11.98;100.00;101068.47;5203830;28;20116;-77
2022/10/31 00:42:07;;;;;;;10.52;4.32;;;;;;;12.04;100.00;101077.00;5201974;28;20037;-77
2022/10/31 00:44:38;;;;;;;12.00;4.00;;;;;;;12.04;100.00;101076.13;5204204;28;20356;-77
2022/10/31 00:47:08;;;;;;;12.10;4.10;;;;;;;12.08;100.00;101086.47;5203269;28;20276;-77
2022/10/31 00:49:38;;;;;;;9.27;3.77;;;;;;;12.02;100.00;101084.06;5204156;28;20295;-77
2022/10/31 00:52:08;;;;;;;10.13;4.00;;;;;;;11.95;100.00;101074.66;5203430;28;20276;-76
2022/10/31 00:54:39;;;;;;;8.65;4.13;;;;;;;12.00;100.00;101078.00;5202358;28;20075;-76
2022/10/31 00:57:09;;;;;;;12.70;4.00;;;;;;;12.02;100.00;101076.19;5202747;28;20030;-77
2022/10/31 00:59:39;;;;;;;13.63;3.97;;;;;;;11.92;100.00;101079.19;5203350;28;20036;-77
2022/10/31 01:02:09;;;;;;;11.67;3.83;;;;;;;11.84;100.00;101087.28;5203184;28;20029;-77
2022/10/31 01:04:40;;;;;;;12.50;4.05;;;;;;;11.83;100.00;101090.81;5201515;28;20278;-77
2022/10/31 01:07:12;;;;;;;14.77;4.57;;;;;;;11.79;100.00;101089.16;5202816;28;20083;-77
2022/10/31 01:09:42;;;;;;;14.90;4.90;;;;;;;11.82;100.00;101088.22;5203647;28;20033;-77
2022/10/31 01:12:12;;;;;;;9.18;3.70;;;;;;;11.43;100.00;101085.06;5203550;28;20208;-77
2022/10/31 01:14:44;;;;;;;11.40;3.83;;;;;;;11.39;100.00;101093.91;5203279;28;20113;-77
2022/10/31 01:17:14;;;;;;;10.02;3.83;;;;;;;11.31;100.00;101080.19;5200949;28;20095;-76
2022/10/31 01:19:45;;;;;;;10.85;3.70;;;;;;;11.40;100.00;101098.25;5203472;28;20025;-77
2022/10/31 01:22:15;;;;;;;7.50;3.40;;;;;;;11.19;100.00;101100.66;5203084;28;20055;-77
2022/10/31 01:24:45;;;;;;;10.52;3.47;;;;;;;11.14;100.00;101097.31;5203430;28;20029;-77
2022/10/31 01:27:16;;;;;;;11.52;3.60;;;;;;;11.04;100.00;101096.72;5201419;28;20029;-75
2022/10/31 01:29:46;;;;;;;8.95;3.80;;;;;;;10.96;100.00;101096.97;5202578;28;20029;-77
2022/10/31 01:32:16;;;;;;;8.82;3.40;;;;;;;11.04;100.00;101090.63;5201178;28;20026;-77
2022/10/31 01:34:46;;;;;;;10.88;4.00;;;;;;;11.10;100.00;101100.94;5202864;28;20229;-77
2022/10/31 01:37:17;;;;;;;12.25;4.30;;;;;;;11.12;100.00;101110.44;5195509;28;20112;-76
2022/10/31 01:39:50;;;;;;;8.57;4.18;;;;;;;11.11;100.00;101108.72;5198984;28;20403;-76
2022/10/31 01:42:22;;;;;;;10.35;3.80;;;;;;;11.12;100.00;101105.19;5201882;28;20430;-77
2022/10/31 01:44:59;;;;;;;13.23;4.20;;;;;;;11.21;100.00;101104.94;5198536;28;20026;-77
2022/10/31 01:47:47;;;;;;;10.98;3.75;;;;;;;10.91;100.00;101115.44;5202065;28;20025;-76
2022/10/31 01:50:33;;;;;;;11.93;3.83;;;;;;;10.97;100.00;101124.84;5203119;28;20311;-76
2022/10/31 01:53:09;;;;;;;9.38;3.72;;;;;;;10.97;100.00;101114.38;5200621;28;20032;-77
2022/10/31 01:55:41;;;;;;;;;;;;;;;10.94;100.00;101114.47;5201133;28;20029;-76
2022/10/31 01:58:14;;;;;;;5.40;3.05;;;;;;;10.94;100.00;101127.56;5201698;28;19921;-76
2022/10/31 02:00:48;;;;;;;12.60;3.85;;;;;;;11.00;100.00;101127.41;5202847;28;20080;-77
2022/10/31 02:03:21;;;;;;;11.20;4.18;;;;;;;11.06;100.00;101131.53;5200659;28;20021;-77
2022/10/31 02:05:56;;;;;;;9.68;4.03;;;;;;;11.14;100.00;101129.56;5198299;28;20153;-77
2022/10/31 02:08:29;;;;;;;12.30;4.47;;;;;;;11.10;100.00;101127.09;5200213;28;20116;-76
2022/10/31 02:11:00;;;;;;;11.45;4.05;;;;;;;11.15;100.00;101133.03;5201723;28;20029;-77
2022/10/31 02:13:31;;;;;;;9.00;4.10;;;;;;;11.13;100.00;101127.84;5201911;28;20173;-77
2022/10/31 02:16:01;;;;;;;11.55;3.78;;;;;;;11.13;100.00;101135.69;5201954;28;20387;-76
2022/10/31 02:18:31;;;;;;;9.30;3.55;;;;;;;11.20;100.00;101139.84;5201280;28;20029;-77
2022/10/31 02:21:23;;;;;;;8.88;4.05;;;;;;;11.17;100.00;101134.72;5201926;28;20244;-77
2022/10/31 02:24:24;;;;;;;10.20;3.70;;;;;;;11.13;100.00;101138.31;5198214;28;20528;-77
2022/10/31 02:27:06;;;;;;;11.65;4.18;;;;;;;11.18;100.00;101136.44;5198420;28;20488;-76
2022/10/31 02:29:45;;;;;;;11.15;3.35;;;;;;;11.26;100.00;101144.06;5201582;28;20033;-76
2022/10/31 02:32:20;;;;;;;10.95;3.72;;;;;;;11.34;100.00;101140.31;5201691;28;20025;-76
2022/10/31 02:34:51;;;;;;;9.52;3.75;;;;;;;11.33;100.00;101146.47;5201954;28;20040;-77
2022/10/31 02:37:32;;;;;;;13.47;4.13;;;;;;;11.16;100.00;101148.72;5201261;28;20029;-77
2022/10/31 02:40:16;;;;;;;15.80;3.80;;;;;;;11.15;100.00;101149.59;5198562;28;20280;-77
2022/10/31 02:42:52;;;;;;;8.38;3.58;;;;;;;11.20;100.00;101152.06;5201723;28;20553;-77
2022/10/31 02:45:37;;;;;;;12.32;4.35;;;;;;;11.24;100.00;101144.09;5197661;28;20057;-76
2022/10/31 02:48:12;;;;;;;8.98;4.40;;;;;;;11.42;100.00;101151.41;5201278;28;20422;-76
2022/10/31 02:50:52;;;;;;;7.82;4.65;;;;;;;11.59;100.00;101143.94;5201856;28;20483;-76
2022/10/31 02:53:22;;;;;;;13.48;5.60;;;;;;;11.90;100.00;101149.94;5197296;28;20036;-76
2022/10/31 02:55:58;;;;;;;18.13;6.55;;;;;;;12.09;100.00;101151.06;5199897;28;20479;-77
2022/10/31 02:58:34;;;;;;;17.05;6.47;;;;;;;12.39;100.00;101155.28;5199204;28;20060;-77
2022/10/31 03:01:20;;;;;;;14.20;6.00;;;;;;;12.54;100.00;101154.78;5199813;28;20116;-77
2022/10/31 03:04:02;;;;;;;16.98;6.57;;;;;;;12.71;100.00;101144.56;5201439;28;20052;-76
2022/10/31 03:06:54;;;;;;;13.27;5.82;;;;;;;12.88;100.00;101150.06;5197828;28;20033;-77
2022/10/31 03:09:37;;;;;;;14.80;6.82;;;;;;;13.00;100.00;101154.88;5197321;28;20029;-77
2022/10/31 03:12:15;;;;;;;15.90;6.30;;;;;;;13.21;100.00;101143.63;5201053;28;20041;-77
2022/10/31 03:14:54;;;;;;;15.68;6.25;;;;;;;13.30;100.00;101153.75;5200954;28;20064;-77
2022/10/31 03:17:34;;;;;;;11.23;6.13;;;;;;;13.37;100.00;101150.00;5196544;28;20552;-76
2022/10/31 03:20:08;;;;;;;17.65;6.15;;;;;;;13.43;100.00;101157.66;5201263;28;20033;-76
2022/10/31 03:22:42;;;;;;;17.00;6.22;;;;;;;13.47;100.00;101160.09;5200410;28;20086;-77
2022/10/31 03:25:13;;;;;;;12.60;6.30;;;;;;;13.45;100.00;101159.31;5200357;28;20017;-77
2022/10/31 03:27:46;;;;;;;16.98;6.80;;;;;;;13.49;100.00;101165.28;5200297;28;20026;-76
2022/10/31 03:30:16;;;;;;;14.63;6.25;;;;;;;13.60;100.00;101163.09;5199783;28;20036;-77
2022/10/31 03:32:54;;;;;;;18.50;7.15;;;;;;;13.66;100.00;101168.13;5199362;28;20029;-77
2022/10/31 03:35:27;;;;;;;17.67;6.10;;;;;;;13.62;100.00;101170.03;5198655;28;20372;-76
2022/10/31 03:38:00;;;;;;;15.85;6.75;;;;;;;13.62;100.00;101177.03;5200135;28;20034;-77
2022/10/31 03:40:32;;;;;;;14.50;7.20;;;;;;;13.61;100.00;101173.53;5200331;28;20048;-76
2022/10/31 03:43:12;;;;;;;26.08;9.43;;;;;;;13.60;100.00;101176.25;5200625;28;20037;-76
2022/10/31 03:45:47;;;;;;;20.83;7.70;;;;;;;13.62;100.00;101171.78;5201056;28;20484;-76
2022/10/31 03:48:20;;;;;;;17.60;8.10;;;;;;;13.57;100.00;101169.31;5199852;28;20033;-76
2022/10/31 03:51:05;;;;;;;21.30;8.77;;;;;;;13.51;100.00;101174.81;5201100;28;20072;-77
2022/10/31 03:53:45;;;;;;;21.15;9.30;;;;;;;13.47;100.00;101175.00;5197864;28;20032;-77
2022/10/31 03:56:30;;;;;;;18.92;9.60;;;;;;;13.44;100.00;101173.31;5199231;28;20091;-77
2022/10/31 03:59:07;;;;;;;20.65;9.20;;;;;;;13.39;100.00;101171.81;5197822;28;20486;-77
2022/10/31 04:01:44;;;;;;;21.85;8.55;;;;;;;13.35;100.00;101178.06;5199489;28;20045;-76
2022/10/31 04:04:14;;;;;;;22.15;8.77;;;;;;;13.26;100.00;101188.91;5199040;28;20399;-76
2022/10/31 04:06:46;;;;;;;19.48;8.70;;;;;;;13.18;100.00;101188.31;5201348;28;20037;-76
2022/10/31 04:09:19;;;;;;;17.98;8.80;;;;;;;13.13;100.00;101183.28;5203072;28;20059;-77
2022/10/31 04:11:53;;;;;;;14.90;7.95;;;;;;;13.09;100.00;101186.06;5204744;28;20057;-77
2022/10/31 04:14:26;;;;;;;18.75;8.48;;;;;;;13.11;100.00;101194.72;5199796;28;20079;-77
2022/10/31 04:16:57;;;;;;;19.10;8.65;;;;;;;13.16;100.00;101190.16;5203276;28;20049;-76
2022/10/31 04:19:27;;;;;;;18.30;9.13;;;;;;;13.03;100.00;101191.53;5204377;28;20072;-76
2022/10/31 04:21:57;;;;;;;15.50;7.97;;;;;;;12.98;100.00;101198.69;5204330;28;20387;-76
2022/10/31 04:24:28;;;;;;;19.33;8.27;;;;;;;12.97;100.00;101196.97;5203067;28;20053;-76
2022/10/31 04:26:58;;;;;;;16.50;8.25;;;;;;;13.00;100.00;101202.97;5203028;28;20286;-76
2022/10/31 04:29:28;;;;;;;17.77;8.68;;;;;;;12.98;100.00;101198.69;5204220;28;20057;-76
2022/10/31 04:31:59;;;;;;;15.95;8.73;;;;;;;13.02;100.00;101205.53;5203968;28;20029;-77
2022/10/31 04:34:29;;;;;;;18.63;8.65;;;;;;;13.04;100.00;101203.75;5202620;28;20518;-77
2022/10/31 04:36:59;;;;;;;17.70;8.52;;;;;;;13.07;100.00;101208.88;5203397;28;20037;-76
2022/10/31 04:39:30;;;;;;;18.48;9.15;;;;;;;13.08;100.00;101200.94;5204314;28;20108;-76
2022/10/31 04:42:00;;;;;;;16.48;8.95;;;;;;;13.01;100.00;101206.44;5203986;28;20026;-76
2022/10/31 04:44:30;;;;;;;18.63;8.73;;;;;;;13.03;100.00;101205.50;5203823;28;20049;-77
2022/10/31 04:47:00;;;;;;;19.13;8.23;;;;;;;12.99;100.00;101205.66;5203636;28;20608;-77
2022/10/31 04:49:30;;;;;;;20.90;8.85;;;;;;;13.02;100.00;101210.78;5203753;28;20105;-77
2022/10/31 04:52:01;;;;;;;20.67;8.43;;;;;;;12.98;100.00;101218.84;5203256;28;20387;-77
2022/10/31 04:54:31;;;;;;;16.48;8.55;;;;;;;12.97;100.00;101211.88;5203227;28;20284;-76
2022/10/31 04:57:01;;;;;;;17.65;8.05;;;;;;;12.96;100.00;101216.25;5203137;28;20396;-76
2022/10/31 04:59:32;;;;;;;17.83;8.90;;;;;;;12.99;100.00;101206.53;5202126;28;20027;-77
2022/10/31 05:02:02;;;;;;;19.50;8.65;;;;;;;12.97;100.00;101206.63;5203335;28;20037;-77
2022/10/31 05:04:32;;;;;;;16.87;9.10;;;;;;;13.02;100.00;101210.78;5202651;28;20014;-77
2022/10/31 05:07:02;;;;;;;22.17;9.63;;;;;;;12.87;100.00;101211.31;5203054;28;20839;-76
2022/10/31 05:09:33;;;;;;;21.35;10.32;;;;;;;12.98;100.00;101210.06;5197962;28;20639;-77
2022/10/31 05:12:03;;;;;;;18.65;8.20;;;;;;;12.81;100.00;101222.00;5202679;28;20049;-77
2022/10/31 05:14:33;;;;;;;24.65;10.05;;;;;;;12.90;100.00;101211.19;5202752;28;20126;-77
2022/10/31 05:17:04;;;;;;;17.98;8.70;;;;;;;12.93;100.00;101216.38;5202486;28;20120;-77
2022/10/31 05:19:34;;;;;;;20.60;8.23;;;;;;;13.05;100.00;101213.31;5202236;28;20026;-77
2022/10/31 05:22:04;;;;;;;14.25;7.65;;;;;;;12.89;100.00;101212.13;5203034;28;20095;-77
2022/10/31 05:24:35;;;;;;;17.83;8.03;;;;;;;12.90;100.00;101208.56;5203244;28;20543;-76
2022/10/31 05:27:06;;;;;;;19.10;8.38;;;;;;;12.65;100.00;101212.09;5201267;28;20351;-77
2022/10/31 05:29:36;;;;;;;14.68;7.30;;;;;;;12.64;100.00;101213.84;5200922;28;20132;-76
2022/10/31 05:32:06;;;;;;;16.00;7.30;;;;;;;12.71;100.00;101210.13;5202442;28;20040;-77
2022/10/31 05:34:37;;;;;;;18.05;7.95;;;;;;;12.75;100.00;101211.72;5201960;28;20052;-77
2022/10/31 05:37:07;;;;;;;15.80;7.17;;;;;;;12.64;100.00;101213.00;5202450;28;20033;-77
2022/10/31 05:39:37;;;;;;;17.95;7.38;;;;;;;12.55;100.00;101219.41;5202415;28;20268;-77
2022/10/31 05:42:07;;;;;;;15.75;7.85;;;;;;;12.54;100.00;101220.31;5200390;28;20457;-74
2022/10/31 05:44:38;;;;;;;20.85;8.82;;;;;;;12.68;100.00;101217.22;5202033;28;20021;-77
2022/10/31 05:47:08;;;;;;;19.13;9.13;;;;;;;12.55;100.00;101216.78;5201610;28;20240;-77
2022/10/31 05:49:38;;;;;;;15.18;8.98;;;;;;;12.67;100.00;101213.72;5202234;28;20582;-77
2022/10/31 05:52:08;;;;;;;18.60;9.15;;;;;;;12.44;100.00;101210.19;5201610;28;20384;-77
2022/10/31 05:54:39;;;;;;;20.55;8.80;;;;;;;12.34;100.00;101219.25;5201279;28;20022;-76
2022/10/31 05:57:09;;;;;;;16.23;8.13;;;;;;;12.36;100.00;101215.69;5201490;28;20514;-77
2022/10/31 05:59:40;;;;;;;19.23;9.43;;;;;;;12.36;100.00;101210.44;5202084;28;20029;-77
2022/10/31 06:02:10;;;;;;;15.50;8.23;;;;;;;12.42;100.00;101212.84;5201459;28;20280;-75
2022/10/31 06:04:40;;;;;;;19.90;9.55;;;;;;;12.35;100.00;101216.59;5201353;28;20037;-77
2022/10/31 06:07:10;;;;;;;17.77;8.23;;;;;;;12.36;100.00;101223.56;5201008;28;20045;-76
2022/10/31 06:09:41;;;;;;;19.65;8.10;;;;;;;12.51;100.00;101223.06;5201942;28;20303;-77
2022/10/31 06:12:11;;;;;;;18.17;9.57;;;;;;;12.69;100.00;101229.44;5201568;28;20384;-77
2022/10/31 06:14:41;;;;;;;19.70;8.80;;;;;;;12.67;100.00;101239.97;5201734;28;20394;-77
2022/10/31 06:17:11;;;;;;;22.27;9.10;;;;;;;12.56;100.00;101236.84;5200742;28;20789;-76
2022/10/31 06:19:42;;;;;;;16.33;8.60;;;;;;;12.49;100.00;101234.47;5201895;28;20033;-76
2022/10/31 06:22:12;;;;;;;18.27;8.60;;;;;;;12.65;100.00;101231.28;5201738;28;20290;-77
2022/10/31 06:24:42;;;;;;;21.48;9.65;;;;;;;12.52;100.00;101239.63;5201681;28;20030;-77
2022/10/31 06:27:13;;;;;;;18.70;8.38;;;;;;;12.48;100.00;101236.22;5201384;28;20033;-76
2022/10/31 06:29:45;;;;;;;18.98;8.57;;;;;;;12.55;100.00;101244.75;5200904;28;20120;-77
2022/10/31 06:32:16;;;;;;;16.15;9.05;;;;;;;12.69;100.00;101243.41;5200661;28;20045;-77
2022/10/31 06:34:50;;;;;;;25.33;10.85;;;;;;;12.68;100.00;101246.09;5200838;28;20053;-76
2022/10/31 06:37:20;;;;;;;22.58;9.75;;;;;;;12.78;100.00;101250.13;5200379;28;20029;-77
2022/10/31 06:39:50;;;;;;;17.88;9.70;;;;;;;12.76;100.00;101250.16;5200596;28;20025;-77
2022/10/31 06:42:20;;;;;;;23.13;10.23;;;;;;;12.84;100.00;101247.28;5199213;28;20036;-76
2022/10/31 06:44:51;;;;;;;25.23;10.80;;;;;;;12.83;100.00;101254.28;5200566;28;20495;-77
2022/10/31 06:47:21;;;;;;;22.40;10.52;;;;;;;13.02;100.00;101256.25;5198244;28;20025;-77
2022/10/31 06:49:51;;;;;;;20.15;9.93;;;;;;;13.07;100.00;101256.13;5200766;28;20443;-76
2022/10/31 06:52:23;;;;;;;23.70;9.73;;;;;;;13.24;100.00;101253.75;5200835;28;20033;-77
2022/10/31 06:54:53;;;;;;;18.17;9.43;;;;;;;13.31;100.00;101260.47;5201793;28;20029;-77
2022/10/31 06:57:23;;;;;;;17.30;8.65;;;;;;;13.37;100.00;101260.28;5200292;28;20032;-77
2022/10/31 06:59:54;;;;;;;21.60;9.35;;;;;;;13.21;100.00;101265.22;5201026;28;20052;-77
2022/10/31 07:02:24;;;;;;;23.42;10.75;;;;;;;13.30;100.00;101274.53;5200883;28;20030;-77
2022/10/31 07:04:54;;;;;;;21.00;9.77;;;;;;;13.22;100.00;101271.31;5199857;28;20489;-77
2022/10/31 07:07:24;;;;;;;26.00;11.03;;;;;;;13.30;100.00;101277.16;5200088;28;20036;-77
2022/10/31 07:09:55;;;;;;;26.50;12.18;;;;;;;13.41;100.00;101269.75;5199368;28;20276;-77
2022/10/31 07:12:25;;;;;;;26.38;13.60;;;;;;;13.47;100.00;101267.78;5199905;28;20025;-77
2022/10/31 07:14:55;;;;;;;28.73;14.23;;;;;;;13.65;100.00;101268.84;5200367;28;20032;-77
2022/10/31 07:17:25;;;;;;;30.75;13.32;;;;;;;13.53;100.00;101264.03;5200616;28;20025;-77
2022/10/31 07:19:56;;;;;;;26.48;12.30;;;;;;;13.68;100.00;101276.63;5199841;28;20513;-77
2022/10/31 07:22:33;;;;;;;30.02;13.10;;;;;;;13.67;100.00;101278.41;5200495;28;20120;-77
2022/10/31 07:25:04;;;;;;;21.30;11.70;;;;;;;13.74;100.00;101281.66;5201164;28;20018;-77
2022/10/31 07:27:39;;;;;;;23.52;11.18;;;;;;;13.78;100.00;101278.00;5200663;28;20491;-77
2022/10/31 07:30:11;;;;;;;27.27;12.47;;;;;;;13.90;100.00;101282.81;5200806;28;20035;-77
2022/10/31 07:32:43;;;;;;;27.90;13.27;;;;;;;13.89;100.00;101281.09;5200747;28;20287;-77
2022/10/31 07:35:25;;;;;;;25.58;12.57;;;;;;;13.83;100.00;101279.56;5199731;28;20025;-76
2022/10/31 07:37:56;;;;;;;25.98;12.65;;;;;;;14.09;100.00;101276.75;5200550;28;20021;-77
2022/10/31 07:40:26;;;;;;;25.02;12.23;;;;;;;14.07;100.00;101270.72;5199703;28;20108;-77
2022/10/31 07:42:57;;;;;;;24.60;12.88;;;;;;;14.16;100.00;101269.53;5200403;28;20049;-77
2022/10/31 07:45:28;;;;;;;29.00;13.23;;;;;;;14.31;100.00;101275.06;5200576;28;20033;-76
2022/10/31 07:47:58;;;;;;;24.27;12.45;;;;;;;14.41;100.00;101265.88;5199557;28;20095;-77
2022/10/31 07:50:30;;;;;;;29.83;13.77;;;;;;;14.55;100.00;101262.69;5200341;28;20017;-77
2022/10/31 07:53:03;;;;;;;29.70;13.07;;;;;;;14.63;100.00;101265.88;5198668;28;20045;-77
2022/10/31 07:55:34;;;;;;;29.25;13.68;;;;;;;14.61;100.00;101272.97;5200545;28;20029;-77
2022/10/31 07:58:09;;;;;;;26.02;13.68;;;;;;;14.69;100.00;101266.47;5200229;28;20044;-77
2022/10/31 08:00:41;;;;;;;24.92;13.43;;;;;;;14.80;100.00;101266.88;5198801;28;20029;-77
2022/10/31 08:03:14;;;;;;;26.88;13.63;;;;;;;14.80;100.00;101261.59;5199020;28;20414;-77
2022/10/31 08:05:45;;;;;;;30.52;14.55;;;;;;;14.95;100.00;101259.19;5199969;28;20048;-77
2022/10/31 08:08:16;;;;;;;29.75;14.60;;;;;;;15.16;100.00;101262.69;5199265;28;20021;-77
2022/10/31 08:10:46;;;;;;;32.95;15.35;;;;;;;14.99;100.00;101258.13;5200070;28;20021;-77
2022/10/31 08:13:16;;;;;;;32.75;15.07;;;;;;;14.96;100.00;101267.94;5199567;28;20025;-76
2022/10/31 08:15:50;;;;;;;30.85;13.80;;;;;;;15.05;100.00;101268.41;5195021;28;20025;-77
2022/10/31 08:18:21;;;;;;;33.00;15.10;;;;;;;15.07;100.00;101273.63;5198432;28;20390;-77
2022/10/31 08:20:53;;;;;;;36.05;16.30;;;;;;;15.25;100.00;101276.31;5193110;28;20049;-76
2022/10/31 08:23:23;;;;;;;33.90;16.35;;;;;;;15.27;100.00;101271.84;5193513;28;20096;-76
2022/10/31 08:25:53;;;;;;;30.35;15.73;;;;;;;15.19;100.00;101273.94;5197049;28;20045;-76
2022/10/31 08:28:24;;;;;;;26.38;15.32;;;;;;;15.27;100.00;101276.25;5189927;28;20161;-76
2022/10/31 08:30:54;;;;;;;35.03;15.85;;;;;;;15.40;100.00;101270.38;5190667;28;21458;-77
2022/10/31 08:33:24;;;;;;;38.45;16.50;;;;;;;15.19;100.00;101268.66;5195022;28;20037;-77
2022/10/31 08:35:57;;;;;;;32.85;17.17;;;;;;;15.47;100.00;101279.75;5194054;28;20075;-77
2022/10/31 08:38:27;;;;;;;37.42;18.00;;;;;;;15.49;100.00;101277.91;5195932;28;20025;-76
2022/10/31 08:40:58;;;;;;;42.03;18.40;;;;;;;15.34;100.00;101278.56;5196158;28;20036;-77
2022/10/31 08:43:28;;;;;;;38.83;18.45;;;;;;;15.53;100.00;101278.63;5193348;28;20403;-77
2022/10/31 08:45:58;;;;;;;46.58;22.10;;;;;;;15.92;100.00;101271.53;5191222;28;20041;-77
2022/10/31 08:48:29;;;;;;;45.30;22.47;;;;;;;15.86;100.00;101267.41;5191489;28;20026;-77
2022/10/31 08:51:00;;;;;;;50.90;22.35;;;;;;;15.81;100.00;101258.84;5198574;28;20338;-76
2022/10/31 08:53:30;;;;;;;46.72;23.77;;;;;;;15.73;100.00;101270.69;5195799;28;20037;-77
2022/10/31 08:56:01;;;;;;;51.05;24.90;;;;;;;15.65;100.00;101272.78;5197714;28;20022;-77
2022/10/31 08:58:31;;;;;;;56.97;26.15;;;;;;;15.70;100.00;101266.38;5200246;28;20138;-77
2022/10/31 09:01:02;;;;;;;53.00;25.08;;;;;;;15.83;100.00;101264.91;5196633;28;20030;-77
2022/10/31 09:03:32;;;;;;;48.45;24.45;;;;;;;15.84;100.00;101263.16;5200217;28;20029;-77
2022/10/31 09:06:05;;;;;;;53.22;25.77;;;;;;;15.71;100.00;101260.19;5194562;28;20025;-77
2022/10/31 09:08:36;;;;;;;56.60;24.83;;;;;;;16.00;100.00;101254.44;5194170;28;20021;-77
2022/10/31 09:11:06;;;;;;;55.40;26.50;;;;;;;16.05;100.00;101256.88;5193520;28;20037;-77
2022/10/31 09:13:36;;;;;;;50.38;25.42;;;;;;;16.12;100.00;101253.88;5197715;28;20055;-77
2022/10/31 09:16:07;;;;;;;55.97;26.40;;;;;;;16.18;100.00;101260.66;5199010;28;20407;-77
2022/10/31 09:18:37;;;;;;;52.47;25.35;;;;;;;16.30;100.00;101258.28;5192870;28;20168;-77
2022/10/31 09:21:07;;;;;;;50.80;25.13;;;;;;;16.58;100.00;101257.81;5196659;28;20033;-74
2022/10/31 09:23:38;;;;;;;51.53;24.63;;;;;;;16.76;100.00;101260.38;5198259;28;20327;-78
2022/10/31 09:26:08;;;;;;;48.95;24.33;;;;;;;17.17;100.00;101260.00;5199468;28;20025;-76
2022/10/31 09:28:38;;;;;;;44.25;22.67;;;;;;;17.32;100.00;101258.38;5195801;28;20138;-77
2022/10/31 09:31:09;;;;;;;40.58;22.77;;;;;;;17.48;100.00;101254.84;5198221;28;20120;-75
2022/10/31 09:33:39;;;;;;;48.20;24.80;;;;;;;17.16;100.00;101249.53;5197974;28;20069;-76
2022/10/31 09:36:09;;;;;;;46.55;22.60;;;;;;;17.27;100.00;101249.78;5198194;28;20105;-76
2022/10/31 09:38:39;;;;;;;48.40;25.00;;;;;;;16.95;100.00;101242.72;5196722;28;20068;-76
2022/10/31 09:41:28;;;;;;;46.42;23.10;;;;;;;16.91;100.00;101238.50;5198710;28;20033;-77
2022/10/31 09:44:15;;;;;;;47.45;22.75;;;;;;;16.99;100.00;101249.53;5195172;28;20575;-77
2022/10/31 09:47:28;;;;;;;49.83;22.35;;;;;;;17.34;100.00;101246.78;5197881;28;20734;-77
2022/10/31 09:50:44;;;;;;;43.08;21.98;;;;;;;17.42;100.00;101238.47;5195505;28;20560;-77
2022/10/31 09:53:27;;;;;;;50.78;23.52;;;;;;;16.80;100.00;101225.84;5207683;28;20079;-77
2022/10/31 09:55:58;;;;;;;40.58;20.00;;;;;;;17.21;100.00;101236.91;5195882;28;20302;-77
2022/10/31 09:58:32;;;;;;;43.85;21.13;;;;;;;17.25;100.00;101241.09;5197058;28;20045;-77
2022/10/31 10:01:05;;;;;;;40.38;22.15;;;;;;;17.02;100.00;101239.69;5198395;28;20395;-76
2022/10/31 10:03:44;;;;;;;41.17;21.55;;;;;;;17.08;100.00;101233.19;5197033;28;20065;-77
2022/10/31 10:06:19;;;;;;;40.40;20.45;;;;;;;17.02;100.00;101234.41;5197661;28;20112;-77
2022/10/31 10:08:49;;;;;;;41.85;22.02;;;;;;;17.02;100.00;101241.44;5196985;28;20069;-77
2022/10/31 10:11:38;;;;;;;41.10;21.27;;;;;;;17.01;100.00;101245.03;5198044;28;20061;-76
2022/10/31 10:14:20;;;;;;;43.63;21.23;;;;;;;17.00;100.00;101238.88;5196331;28;20111;-77
2022/10/31 10:17:02;;;;;;;41.13;20.40;;;;;;;17.05;100.00;101241.28;5197613;28;20842;-76
2022/10/31 10:19:56;;;;;;;39.28;20.40;;;;;;;17.02;100.00;101241.44;5194656;28;20598;-77
2022/10/31 10:22:52;;;;;;;45.60;20.92;;;;;;;16.89;100.00;101235.06;5194296;28;20037;-77
2022/10/31 10:25:26;;;;;;;41.72;19.30;;;;;;;17.01;100.00;101227.38;5194042;28;20777;-76
2022/10/31 10:28:02;;;;;;;41.50;18.42;;;;;;;17.08;100.00;101228.78;5196764;28;20025;-77
2022/10/31 10:30:35;;;;;;;43.70;19.55;;;;;;;16.95;100.00;101232.97;5196462;28;20045;-77
2022/10/31 10:33:13;;;;;;;39.58;19.00;;;;;;;16.89;100.00;101225.38;5198026;28;20037;-77
2022/10/31 10:35:49;;;;;;;39.88;18.52;;;;;;;17.09;100.00;101221.69;5196078;28;20037;-77
2022/10/31 10:38:36;;;;;;;38.65;18.50;;;;;;;17.09;100.00;101216.41;5195621;28;20036;-76
2022/10/31 10:41:15;;;;;;;37.22;18.25;;;;;;;17.23;100.00;101217.41;5197068;28;20483;-77
2022/10/31 10:43:49;;;;;;;38.42;18.10;;;;;;;17.26;100.00;101211.97;5195912;28;20040;-77
2022/10/31 10:49:36;;;;;;;40.65;18.20;;;;;;;17.15;100.00;101209.03;5193795;28;20549;-77
2022/10/31 10:52:25;;;;;;;32.80;16.35;;;;;;;17.16;100.00;101205.44;5196468;28;20236;-77
2022/10/31 10:55:27;;;;;;;30.30;14.48;;;;;;;17.11;100.00;101204.84;5196468;28;20041;-77
2022/10/31 10:58:04;;;;;;;27.98;13.15;;;;;;;17.15;100.00;101198.47;5196655;28;20033;-77
2022/10/31 11:00:38;;;;;;;28.85;13.07;;;;;;;17.25;100.00;101193.53;5194935;28;20584;-77
2022/10/31 11:03:10;;;;;;;30.23;13.65;;;;;;;17.12;100.00;101190.69;5196657;28;20099;-77
2022/10/31 11:05:49;;;;;;;27.95;14.07;;;;;;;17.08;100.00;101188.28;5196350;28;20128;-77
2022/10/31 11:08:37;;;;;;;29.60;12.95;;;;;;;17.34;100.00;101186.00;5195441;28;20044;-77
2022/10/31 11:11:16;;;;;;;29.45;12.88;;;;;;;17.34;100.00;101177.25;5195083;28;20069;-77
2022/10/31 11:13:52;;;;;;;30.33;12.95;;;;;;;17.60;100.00;101180.19;5197028;28;20022;-76
2022/10/31 11:16:25;;;;;;;28.63;13.48;;;;;;;17.39;100.00;101180.47;5190605;28;20049;-77
2022/10/31 11:19:07;;;;;;;32.88;14.05;;;;;;;17.55;100.00;101176.06;5195748;28;20519;-77
2022/10/31 11:21:38;;;;;;;30.52;14.05;;;;;;;17.56;100.00;101181.28;5196740;28;20187;-77
2022/10/31 11:24:08;;;;;;;33.40;14.90;;;;;;;17.61;100.00;101176.59;5197181;28;20677;-76
2022/10/31 11:26:41;;;;;;;31.40;15.10;;;;;;;17.45;100.00;101169.59;5196299;28;20041;-77
2022/10/31 11:29:19;;;;;;;28.83;15.05;;;;;;;17.65;100.00;101172.00;5196815;28;20032;-76
2022/10/31 11:31:53;;;;;;;32.95;15.85;;;;;;;17.63;100.00;101173.88;5196381;28;20045;-77
2022/10/31 11:34:26;;;;;;;31.33;15.65;;;;;;;17.46;100.00;101166.03;5194473;28;20407;-77
2022/10/31 11:37:16;;;;;;;30.30;15.38;;;;;;;17.53;100.00;101155.03;5195787;28;20069;-77
2022/10/31 11:39:53;;;;;;;30.48;15.85;;;;;;;17.56;100.00;101154.00;5195886;28;20036;-77